Flight Track Log - Related Links

Times and Time Zones

All times are in EDT time to prevent confusion due to time zone crossing. See the WJA363 flight status page for this flight to view local times or setup timezone preferences in your user account.

Time Position Orientation Groundspeed Altitude Reporting Facility
EDT Latitude Longitude Course Direction KTS MPH feet Rate Location/Type
Thu 11:56:20 AM 45.3000 -75.6333 246° West 130 150 600  Level Montreal Center
Thu 11:58:07 AM 45.3500 -75.5333 55° Northeast 190 219 4,400 2,048 Climbing Toronto Center
Thu 11:59:07 AM 45.4167 -75.5000 19° North 260 299 6,300 2,842 Climbing Toronto Center
Thu 12:00:00 PM 45.2198 -76.3318 246° West  Level FlightAware Approximate
Thu 12:00:20 PM 45.4667 -75.6500 295° West 270 311 10,700  Level Montreal Center
Thu 12:01:00 PM 45.1877 -76.4359 246° West  Level FlightAware Approximate
Thu 12:01:20 PM 45.4333 -75.7833 250° West 320 368 13,000  Level Montreal Center
Thu 12:02:20 PM 45.3833 -75.9000 239° Southwest 340 391 16,400 3,300 Climbing Montreal Center
Thu 12:03:20 PM 45.3167 -76.0000 227° Southwest 350 403 19,600 3,200 Climbing Montreal Center
Thu 12:04:20 PM 45.2667 -76.1333 242° Southwest 370 426 22,800 3,150 Climbing Montreal Center
Thu 12:05:20 PM 45.2333 -76.2500 248° West 370 426 25,900 2,800 Climbing Montreal Center
Thu 12:06:20 PM 45.1833 -76.4000 245° Southwest 370 426 28,400 2,141 Climbing Montreal Center
Thu 12:08:00 PM 45.1297 -76.5754 247° West  Level FlightAware Approximate
Thu 12:09:07 PM 45.0833 -76.7333 247° West 360 414 34,000  Level Toronto Center
Thu 12:10:07 PM 45.0333 -76.8667 242° Southwest 360 414 34,000  Level Toronto Center
Thu 12:11:20 PM 45.0000 -77.0500 256° West 360 414 34,000  Level Montreal Center
Thu 12:12:07 PM 44.9500 -77.1333 230° Southwest 360 414 34,000  Level Toronto Center
Thu 12:13:07 PM 44.9167 -77.2500 248° West 360 414 34,000  Level Toronto Center
Thu 12:14:07 PM 44.8833 -77.4000 253° West 360 414 34,000  Level Toronto Center
Thu 12:15:07 PM 44.8500 -77.5167 248° West 360 414 34,000  Level Toronto Center
Thu 12:16:07 PM 44.8000 -77.6667 245° Southwest 360 414 34,000  Level Toronto Center
Thu 12:17:07 PM 44.7667 -77.7833 248° West 360 414 34,000 -150 Level Toronto Center
Thu 12:18:07 PM 44.7167 -77.9000 239° Southwest 350 403 33,700 -1,450 Descending Toronto Center
Thu 12:19:07 PM 44.6667 -78.0167 239° Southwest 340 391 31,100 -2,250 Descending Toronto Center
Thu 12:20:07 PM 44.6167 -78.1167 235° Southwest 320 368 29,200 -1,950 Descending Toronto Center
Thu 12:21:07 PM 44.5667 -78.2333 239° Southwest 310 357 27,200 -1,850 Descending Toronto Center
Thu 12:22:07 PM 44.5167 -78.3167 230° Southwest 290 334 25,500 -1,714 Descending Toronto Center
Thu 12:23:20 PM 44.4833 -78.4500 251° West 280 322 23,400 -1,714 Descending Montreal Center
Thu 12:24:20 PM 44.4167 -78.5500 227° Southwest 280 322 21,700 -1,700 Descending Montreal Center
Thu 12:25:20 PM 44.3833 -78.6333 241° Southwest 280 322 20,000 -1,738 Descending Montreal Center
Thu 12:26:07 PM 44.3667 -78.6833 245° Southwest 280 322 18,600 -1,682 Descending Toronto Center
Thu 12:27:07 PM 44.3167 -78.7667 230° Southwest 280 322 17,000 -1,700 Descending Toronto Center
Thu 12:28:07 PM 44.2833 -78.8667 245° Southwest 280 322 15,200 -1,700 Descending Toronto Center
Thu 12:29:07 PM 44.2333 -78.9333 224° Southwest 270 311 13,600 -1,600 Descending Toronto Center
Thu 12:30:07 PM 44.2000 -79.0333 245° Southwest 270 311 12,000 -1,300 Descending Toronto Center
Thu 12:33:07 PM 44.0667 -79.2333 227° Southwest 230 265 8,400 -1,175 Descending Toronto Center
Thu 12:34:07 PM 44.0167 -79.2833 216° Southwest 240 276 7,300 -1,250 Descending Toronto Center
Thu 12:35:07 PM 43.9500 -79.3333 208° Southwest 240 276 5,900 -1,450 Descending Toronto Center
Thu 12:36:07 PM 43.9000 -79.3833 216° Southwest 240 276 4,400 -1,000 Descending Toronto Center
Thu 12:38:07 PM 43.7833 -79.4667 207° Southwest 230 265 2,900 -733 Descending Toronto Center
Thu 12:39:07 PM 43.7500 -79.5167 227° Southwest 200 230 2,200 -750 Descending Toronto Center
Thu 12:40:07 PM 43.7167 -79.5667 227° Southwest 160 184 1,400 -700 Descending Toronto Center
Thu 12:41:07 PM 43.6833 -79.6167 227° Southwest 130 150 800 -600 Descending Toronto Center

Login

Don't have an account? Register now (free) for customized features, flight alerts, and more!